createdAt,value
2017-03-31T00:00:24.481Z,91.10
2017-03-31T00:01:23.833Z,91.10
2017-03-31T00:02:23.207Z,91.10
2017-03-31T00:03:23.369Z,91.20
2017-03-31T00:04:22.762Z,91.10
2017-03-31T00:05:22.123Z,91.10
2017-03-31T00:06:21.418Z,91.10
2017-03-31T00:07:20.757Z,91.10
2017-03-31T00:08:20.909Z,91.10
2017-03-31T00:09:20.410Z,91.30
2017-03-31T00:10:19.805Z,91.40
2017-03-31T00:11:19.143Z,91.40
2017-03-31T00:12:19.282Z,91.50
2017-03-31T00:13:18.670Z,91.70
2017-03-31T00:14:18.750Z,92.10
2017-03-31T00:15:18.851Z,91.80
2017-03-31T00:16:18.428Z,91.80
2017-03-31T00:17:17.797Z,91.80
2017-03-31T00:18:17.169Z,91.80
2017-03-31T00:19:17.281Z,91.90
2017-03-31T00:20:16.627Z,91.80
2017-03-31T00:21:15.973Z,91.80
2017-03-31T00:22:15.476Z,91.80
2017-03-31T00:23:14.801Z,91.90
2017-03-31T00:24:14.136Z,91.90
2017-03-31T00:25:13.447Z,91.90
2017-03-31T00:26:12.811Z,91.90
2017-03-31T00:27:12.173Z,91.90
2017-03-31T00:28:12.517Z,91.90
2017-03-31T00:29:11.873Z,91.80
2017-03-31T00:30:11.219Z,91.80
2017-03-31T00:31:10.560Z,91.90
2017-03-31T00:32:09.949Z,92.00
2017-03-31T00:33:10.200Z,92.00
2017-03-31T00:34:09.838Z,92.00
2017-03-31T00:35:09.183Z,92.00
2017-03-31T00:36:08.517Z,92.00
2017-03-31T00:37:07.953Z,92.00
2017-03-31T00:38:07.325Z,92.00
2017-03-31T00:39:06.648Z,92.00
2017-03-31T00:40:06.051Z,92.00
2017-03-31T00:41:05.439Z,92.10
2017-03-31T00:42:04.803Z,92.00
2017-03-31T00:43:04.156Z,92.00
2017-03-31T00:44:03.489Z,92.00
2017-03-31T00:45:02.882Z,92.00
2017-03-31T00:46:03.258Z,92.10
2017-03-31T00:47:02.613Z,92.10
2017-03-31T00:48:01.918Z,92.10
2017-03-31T00:49:01.984Z,92.00
2017-03-31T00:50:01.358Z,92.10
2017-03-31T00:51:00.712Z,92.10
2017-03-31T00:52:00.345Z,92.20
2017-03-31T00:52:59.741Z,92.10
2017-03-31T00:53:59.051Z,92.10
2017-03-31T00:54:58.366Z,92.10
2017-03-31T00:55:58.579Z,92.20
2017-03-31T00:56:57.889Z,92.30
2017-03-31T00:57:57.301Z,92.30
2017-03-31T00:58:56.630Z,92.30
2017-03-31T00:59:55.970Z,92.30
2017-03-31T01:00:55.338Z,92.40
2017-03-31T01:01:54.751Z,92.40
2017-03-31T01:02:54.113Z,92.40
2017-03-31T01:03:53.573Z,92.50
2017-03-31T01:04:53.019Z,92.50
2017-03-31T01:05:52.370Z,92.50
2017-03-31T01:06:52.548Z,92.50
2017-03-31T01:07:51.934Z,92.50
2017-03-31T01:08:51.377Z,92.60
2017-03-31T01:09:51.076Z,92.60
2017-03-31T01:10:50.422Z,92.60
2017-03-31T01:11:49.783Z,92.60
2017-03-31T01:12:49.114Z,92.90
2017-03-31T01:13:48.445Z,93.00
2017-03-31T01:14:48.499Z,93.00
2017-03-31T01:15:47.901Z,92.90
2017-03-31T01:16:47.264Z,93.00
2017-03-31T01:17:46.601Z,93.00
2017-03-31T01:18:45.992Z,92.90
2017-03-31T01:19:45.348Z,93.00
2017-03-31T01:20:44.697Z,93.00
2017-03-31T01:21:44.242Z,93.20
2017-03-31T01:22:43.618Z,92.90
2017-03-31T01:23:43.001Z,92.90
2017-03-31T01:24:43.101Z,92.90
2017-03-31T01:25:42.440Z,92.90
2017-03-31T01:26:41.747Z,92.90
2017-03-31T01:27:41.127Z,92.80
2017-03-31T01:28:40.502Z,92.80
2017-03-31T01:29:39.797Z,93.00
2017-03-31T01:30:39.105Z,92.80
2017-03-31T01:31:38.504Z,92.90
2017-03-31T01:32:37.854Z,92.90
2017-03-31T01:33:37.213Z,92.90
2017-03-31T01:34:36.573Z,92.90
2017-03-31T01:35:35.894Z,92.90
2017-03-31T01:36:35.266Z,92.90
2017-03-31T01:37:34.597Z,92.90
2017-03-31T01:38:33.937Z,92.90
2017-03-31T01:39:33.547Z,92.90
2017-03-31T01:40:32.925Z,92.90
2017-03-31T01:41:33.027Z,92.90
2017-03-31T01:42:32.407Z,92.90
2017-03-31T01:43:31.763Z,92.90
2017-03-31T01:44:31.070Z,93.00
2017-03-31T01:45:30.436Z,93.30
2017-03-31T01:46:29.789Z,93.00
2017-03-31T01:47:29.215Z,93.00
2017-03-31T01:48:28.549Z,93.00
2017-03-31T01:49:27.878Z,93.00
2017-03-31T01:50:27.198Z,93.00
2017-03-31T01:51:26.542Z,93.00
2017-03-31T01:52:26.817Z,93.00
2017-03-31T01:53:26.178Z,93.10
2017-03-31T01:54:25.519Z,93.00
2017-03-31T01:55:24.981Z,93.00
2017-03-31T01:56:25.310Z,93.10
2017-03-31T01:57:24.922Z,93.10
2017-03-31T01:58:24.374Z,93.10
2017-03-31T01:59:23.705Z,93.10
2017-03-31T02:00:23.038Z,93.10
2017-03-31T02:01:22.414Z,93.20
2017-03-31T02:02:21.900Z,93.20
2017-03-31T02:03:21.242Z,93.20
2017-03-31T02:04:20.716Z,93.20
2017-03-31T02:05:20.033Z,93.20
2017-03-31T02:06:19.332Z,93.20
2017-03-31T02:07:18.708Z,93.20
2017-03-31T02:08:18.056Z,93.20
2017-03-31T02:09:17.449Z,93.20
2017-03-31T02:10:17.534Z,93.30
2017-03-31T02:11:16.824Z,93.20
2017-03-31T02:12:16.201Z,93.30
2017-03-31T02:13:15.557Z,93.20
2017-03-31T02:14:14.925Z,93.30
2017-03-31T02:15:14.335Z,93.30
2017-03-31T02:16:14.421Z,93.30
2017-03-31T02:17:13.725Z,93.40
2017-03-31T02:18:13.044Z,93.40
2017-03-31T02:19:12.342Z,93.40
2017-03-31T02:20:11.668Z,93.40
2017-03-31T02:21:11.052Z,93.70
2017-03-31T02:22:10.398Z,93.40
2017-03-31T02:23:09.738Z,93.40
2017-03-31T02:24:09.108Z,93.40
2017-03-31T02:25:08.526Z,93.40
2017-03-31T02:26:07.837Z,93.30
2017-03-31T02:27:07.273Z,93.40
2017-03-31T02:28:06.596Z,93.40
2017-03-31T02:29:05.901Z,93.30
2017-03-31T02:30:05.202Z,93.30
2017-03-31T02:31:04.519Z,93.40
2017-03-31T02:32:03.842Z,93.40
2017-03-31T02:33:03.406Z,93.40
2017-03-31T02:34:02.748Z,93.30
2017-03-31T02:35:02.101Z,93.30
2017-03-31T02:36:01.417Z,93.40
2017-03-31T02:37:00.741Z,93.50
2017-03-31T02:38:00.067Z,93.50
2017-03-31T02:38:59.430Z,93.40
2017-03-31T02:39:58.797Z,93.40
2017-03-31T02:40:58.149Z,93.40
2017-03-31T02:41:57.537Z,93.40
2017-03-31T02:42:56.892Z,93.40
2017-03-31T02:43:56.317Z,93.50
2017-03-31T02:44:55.721Z,93.40
2017-03-31T02:45:55.091Z,93.50
2017-03-31T02:46:54.441Z,93.50
2017-03-31T02:47:53.777Z,93.50
2017-03-31T02:48:53.094Z,93.50
2017-03-31T02:49:52.409Z,93.60
2017-03-31T02:50:52.030Z,93.60
2017-03-31T02:51:52.126Z,93.60
2017-03-31T02:52:51.430Z,93.60
2017-03-31T02:53:50.825Z,93.60
2017-03-31T02:54:50.161Z,93.60
2017-03-31T02:55:49.501Z,93.50
2017-03-31T02:56:49.054Z,93.60
2017-03-31T02:57:48.405Z,93.70
2017-03-31T02:58:47.713Z,93.60
2017-03-31T02:59:47.014Z,93.60
2017-03-31T03:00:46.309Z,93.60
2017-03-31T03:01:45.607Z,93.60
2017-03-31T03:02:45.231Z,93.60
2017-03-31T03:03:44.573Z,93.60
2017-03-31T03:04:43.911Z,93.60
2017-03-31T03:05:43.269Z,93.60
2017-03-31T03:06:42.579Z,93.90
2017-03-31T03:07:41.901Z,93.60
2017-03-31T03:08:41.257Z,93.60
2017-03-31T03:09:40.681Z,93.70
2017-03-31T03:10:40.733Z,93.60
2017-03-31T03:11:40.103Z,93.70
2017-03-31T03:12:40.293Z,93.70
2017-03-31T03:13:39.673Z,93.70
2017-03-31T03:14:39.017Z,93.70
2017-03-31T03:15:38.391Z,93.70
2017-03-31T03:16:37.717Z,93.80
2017-03-31T03:17:37.067Z,93.80
2017-03-31T03:18:36.369Z,93.80
2017-03-31T03:19:35.664Z,93.80
2017-03-31T03:20:35.327Z,93.80
2017-03-31T03:21:34.765Z,93.80
2017-03-31T03:22:34.107Z,93.90
2017-03-31T03:23:33.547Z,93.90
2017-03-31T03:24:32.974Z,93.90
2017-03-31T03:25:32.273Z,93.90
2017-03-31T03:26:31.596Z,93.90
2017-03-31T03:27:30.897Z,93.90
2017-03-31T03:28:30.201Z,93.90
2017-03-31T03:29:29.562Z,93.90
2017-03-31T03:30:28.872Z,93.90
2017-03-31T03:31:28.223Z,93.90
2017-03-31T03:32:27.620Z,93.90
2017-03-31T03:33:27.035Z,94.00
2017-03-31T03:34:26.400Z,94.00
2017-03-31T03:35:25.782Z,93.90
2017-03-31T03:36:25.134Z,94.00
2017-03-31T03:37:24.444Z,94.00
2017-03-31T03:38:24.021Z,94.00
2017-03-31T03:39:23.409Z,94.10
2017-03-31T03:40:22.717Z,94.00
2017-03-31T03:41:22.800Z,94.10
2017-03-31T03:42:22.114Z,94.10
2017-03-31T03:43:21.427Z,94.10
2017-03-31T03:44:20.805Z,94.20
2017-03-31T03:45:20.259Z,94.20
2017-03-31T03:46:19.591Z,94.30
2017-03-31T03:47:18.948Z,94.30
2017-03-31T03:48:18.279Z,94.30
2017-03-31T03:49:17.581Z,94.30
2017-03-31T03:50:16.952Z,94.60
2017-03-31T03:51:16.347Z,94.30
2017-03-31T03:52:15.741Z,94.30
2017-03-31T03:53:15.081Z,94.30
2017-03-31T03:54:14.456Z,94.30
2017-03-31T03:55:13.815Z,94.30
2017-03-31T03:56:13.517Z,94.30
2017-03-31T03:57:12.891Z,94.30
2017-03-31T03:58:12.224Z,94.30
2017-03-31T03:59:11.574Z,94.30
2017-03-31T04:00:10.932Z,94.30
2017-03-31T04:01:10.297Z,94.30
2017-03-31T04:02:09.625Z,94.30
2017-03-31T04:03:08.996Z,94.30
2017-03-31T04:04:08.329Z,94.30
2017-03-31T04:05:07.695Z,94.20
2017-03-31T04:06:07.046Z,94.20
2017-03-31T04:07:06.416Z,94.20
2017-03-31T04:08:05.781Z,94.20
2017-03-31T04:09:05.881Z,94.40
2017-03-31T04:10:05.237Z,94.20
2017-03-31T04:11:04.602Z,94.20
2017-03-31T04:12:03.953Z,94.20
2017-03-31T04:13:03.289Z,94.30
2017-03-31T04:14:02.622Z,94.30
2017-03-31T04:15:01.981Z,94.30
2017-03-31T04:16:02.014Z,94.30
2017-03-31T04:17:01.332Z,94.20
2017-03-31T04:18:00.677Z,94.20
2017-03-31T04:19:00.766Z,94.30
2017-03-31T04:20:00.128Z,94.20
2017-03-31T04:20:59.545Z,94.20
2017-03-31T04:21:58.855Z,94.20
2017-03-31T04:22:58.204Z,94.20
2017-03-31T04:23:57.487Z,94.20
2017-03-31T04:24:56.853Z,94.20
2017-03-31T04:25:56.551Z,94.20
2017-03-31T04:26:55.890Z,94.10
2017-03-31T04:27:55.205Z,94.20
2017-03-31T04:28:54.543Z,94.10
2017-03-31T04:29:53.909Z,94.10
2017-03-31T04:30:53.241Z,94.10
2017-03-31T04:31:52.673Z,94.10
2017-03-31T04:32:52.021Z,94.10
2017-03-31T04:33:51.390Z,94.10
2017-03-31T04:34:51.467Z,94.10
2017-03-31T04:35:50.778Z,94.10
2017-03-31T04:36:50.112Z,94.10
2017-03-31T04:37:49.534Z,94.10
2017-03-31T04:38:48.932Z,94.10
2017-03-31T04:39:48.254Z,94.10
2017-03-31T04:40:47.569Z,94.40
2017-03-31T04:41:47.642Z,94.10
2017-03-31T04:42:46.968Z,94.10
2017-03-31T04:43:46.298Z,94.10
2017-03-31T04:44:46.353Z,94.10
2017-03-31T04:45:45.657Z,94.20
2017-03-31T04:46:44.962Z,94.20
2017-03-31T04:47:44.342Z,94.20
2017-03-31T04:48:43.763Z,94.30
2017-03-31T04:49:43.148Z,94.30
2017-03-31T04:50:43.305Z,94.30
2017-03-31T04:51:43.353Z,94.30
2017-03-31T04:52:42.669Z,94.40
2017-03-31T04:53:42.013Z,94.40
2017-03-31T04:54:41.316Z,94.40
2017-03-31T04:55:41.039Z,94.40
2017-03-31T04:56:41.134Z,94.40
2017-03-31T04:57:40.459Z,94.40
2017-03-31T04:58:39.782Z,94.40
2017-03-31T04:59:39.173Z,94.50
2017-03-31T05:00:38.505Z,94.50
2017-03-31T05:01:37.877Z,94.50
2017-03-31T05:02:37.473Z,94.50
2017-03-31T05:03:36.828Z,94.50
2017-03-31T05:04:36.141Z,94.50
2017-03-31T05:05:35.409Z,94.50
2017-03-31T05:06:34.756Z,94.50
2017-03-31T05:07:34.170Z,94.50
2017-03-31T05:08:33.549Z,94.90
2017-03-31T05:09:32.867Z,94.60
2017-03-31T05:10:32.195Z,94.60
2017-03-31T05:11:31.513Z,94.70
2017-03-31T05:12:31.640Z,94.70
2017-03-31T05:13:31.226Z,94.70
2017-03-31T05:14:30.618Z,94.80
2017-03-31T05:15:29.989Z,94.80
2017-03-31T05:16:29.322Z,94.80
2017-03-31T05:17:28.768Z,94.80
2017-03-31T05:18:28.122Z,94.90
2017-03-31T05:19:27.516Z,94.90
2017-03-31T05:20:27.628Z,94.90
2017-03-31T05:21:26.929Z,94.90
2017-03-31T05:22:26.214Z,94.90
2017-03-31T05:23:25.531Z,94.90
2017-03-31T05:24:25.022Z,94.90
2017-03-31T05:25:24.589Z,94.90
2017-03-31T05:26:23.937Z,94.90
2017-03-31T05:27:23.285Z,94.90
2017-03-31T05:28:22.634Z,94.80
2017-03-31T05:29:21.990Z,94.80
2017-03-31T05:30:21.340Z,94.80
2017-03-31T05:31:20.705Z,94.70
2017-03-31T05:32:20.002Z,94.70
2017-03-31T05:33:20.138Z,94.70
2017-03-31T05:34:19.545Z,94.70
2017-03-31T05:35:18.879Z,94.70
2017-03-31T05:36:18.262Z,94.70
2017-03-31T05:37:18.421Z,94.60
2017-03-31T05:38:17.854Z,94.50
2017-03-31T05:39:17.260Z,94.40
2017-03-31T05:40:16.734Z,94.30
2017-03-31T05:41:16.121Z,94.20
2017-03-31T05:42:15.489Z,94.10
2017-03-31T05:43:14.833Z,93.80
2017-03-31T05:44:14.185Z,93.70
2017-03-31T05:45:13.506Z,93.60
2017-03-31T05:46:12.907Z,93.40
2017-03-31T05:47:12.239Z,93.10
2017-03-31T05:48:11.594Z,93.00
2017-03-31T05:49:10.967Z,92.70
2017-03-31T05:50:10.315Z,92.40
2017-03-31T05:51:09.641Z,92.20
2017-03-31T05:52:09.017Z,92.10
2017-03-31T05:53:08.384Z,92.10
2017-03-31T05:54:07.738Z,92.10
2017-03-31T05:55:07.094Z,91.70
2017-03-31T05:56:06.426Z,91.50
2017-03-31T05:57:05.726Z,91.30
2017-03-31T05:58:05.049Z,91.30
2017-03-31T05:59:04.397Z,90.90
2017-03-31T06:00:03.732Z,90.70
2017-03-31T06:01:03.140Z,90.60
2017-03-31T06:02:02.503Z,90.60
2017-03-31T06:03:01.959Z,90.30
2017-03-31T06:04:01.358Z,90.10
2017-03-31T06:05:00.736Z,89.80
2017-03-31T06:06:00.066Z,89.60
2017-03-31T06:06:59.712Z,89.40
2017-03-31T06:07:59.097Z,89.10
2017-03-31T06:08:58.455Z,88.70
2017-03-31T06:09:57.800Z,88.60
2017-03-31T06:10:57.172Z,88.50
2017-03-31T06:11:56.506Z,88.70
2017-03-31T06:12:55.850Z,88.90
2017-03-31T06:13:55.145Z,89.20
2017-03-31T06:14:54.454Z,88.80
2017-03-31T06:15:55.268Z,88.70
2017-03-31T06:16:55.398Z,88.40
2017-03-31T06:17:57.767Z,89.00
2017-03-31T06:18:58.164Z,88.90
2017-03-31T06:19:57.489Z,88.80
2017-03-31T06:20:57.643Z,88.50
2017-03-31T06:21:56.980Z,88.50
2017-03-31T06:22:56.336Z,88.60
2017-03-31T06:23:55.622Z,88.40
2017-03-31T06:24:54.946Z,88.50
2017-03-31T06:25:54.275Z,88.40
2017-03-31T06:26:53.616Z,87.90
2017-03-31T06:27:52.948Z,87.50
2017-03-31T06:28:58.661Z,87.50
2017-03-31T06:29:58.117Z,87.30
2017-03-31T06:30:57.422Z,87.40
2017-03-31T06:31:56.791Z,87.60
2017-03-31T06:32:56.235Z,87.20
2017-03-31T06:33:55.602Z,87.50
2017-03-31T06:34:54.934Z,86.90
2017-03-31T06:35:54.362Z,85.90
2017-03-31T06:36:54.212Z,86.30
2017-03-31T06:37:54.349Z,85.50
2017-03-31T06:38:54.418Z,85.70
2017-03-31T06:39:53.743Z,86.20
2017-03-31T06:40:53.064Z,86.60
2017-03-31T06:41:52.439Z,85.00
2017-03-31T06:42:51.739Z,86.30
2017-03-31T06:43:51.838Z,86.20
2017-03-31T06:44:51.109Z,86.50
2017-03-31T06:45:50.412Z,85.20
2017-03-31T06:46:50.117Z,85.20
2017-03-31T06:47:49.443Z,85.30
2017-03-31T06:48:48.779Z,85.00
2017-03-31T06:49:48.130Z,85.40
2017-03-31T06:50:47.424Z,85.30
2017-03-31T06:51:46.760Z,85.50
2017-03-31T06:52:46.147Z,87.50
2017-03-31T06:53:45.875Z,87.30
2017-03-31T06:54:45.216Z,85.00
2017-03-31T06:55:44.576Z,83.60
2017-03-31T06:56:44.791Z,86.00
2017-03-31T06:57:44.898Z,90.80
2017-03-31T06:58:45.306Z,86.40
2017-03-31T06:59:45.199Z,84.50
2017-03-31T07:00:45.322Z,80.60
2017-03-31T07:01:46.138Z,79.70
2017-03-31T07:02:46.815Z,77.90
2017-03-31T07:03:46.705Z,77.10
2017-03-31T07:04:46.162Z,79.60
2017-03-31T07:05:45.564Z,72.50
2017-03-31T07:06:46.202Z,76.10
2017-03-31T07:07:45.506Z,70.40
2017-03-31T07:08:44.908Z,70.70
2017-03-31T07:09:44.232Z,68.70
2017-03-31T07:10:43.559Z,67.60
2017-03-31T07:11:42.948Z,68.50
2017-03-31T07:12:42.261Z,66.70
2017-03-31T07:13:41.821Z,65.40
2017-03-31T07:14:41.101Z,64.90
2017-03-31T07:15:40.481Z,62.00
2017-03-31T07:16:39.915Z,61.60
2017-03-31T07:17:39.289Z,61.00
2017-03-31T07:18:38.716Z,60.70
2017-03-31T07:19:38.038Z,60.10
2017-03-31T07:20:37.453Z,61.10
2017-03-31T07:21:36.786Z,60.10
2017-03-31T07:22:36.153Z,58.80
2017-03-31T07:23:35.534Z,58.20
2017-03-31T07:24:34.839Z,58.10
2017-03-31T07:25:34.185Z,58.40
2017-03-31T07:26:33.678Z,58.40
2017-03-31T07:27:33.030Z,58.90
2017-03-31T07:28:32.361Z,57.80
2017-03-31T07:29:31.700Z,57.50
2017-03-31T07:30:30.989Z,56.60
2017-03-31T07:31:30.443Z,55.70
2017-03-31T07:32:29.811Z,56.00
2017-03-31T07:33:29.150Z,55.90
2017-03-31T07:34:28.477Z,56.00
2017-03-31T07:35:27.773Z,58.80
2017-03-31T07:36:27.138Z,56.00
2017-03-31T07:37:26.584Z,55.10
2017-03-31T07:38:26.020Z,54.90
2017-03-31T07:39:25.389Z,53.70
2017-03-31T07:40:24.802Z,53.90
2017-03-31T07:41:24.195Z,53.50
2017-03-31T07:42:23.594Z,53.00
2017-03-31T07:43:23.065Z,53.30
2017-03-31T07:44:22.574Z,51.70
2017-03-31T07:45:22.608Z,51.70
2017-03-31T07:46:21.967Z,50.80
2017-03-31T07:47:21.427Z,51.00
2017-03-31T07:48:20.768Z,52.40
2017-03-31T07:49:20.126Z,50.50
2017-03-31T07:50:19.554Z,49.60
2017-03-31T07:51:18.931Z,49.70
2017-03-31T07:52:18.281Z,50.50
2017-03-31T07:53:17.618Z,49.40
2017-03-31T07:54:16.979Z,49.10
2017-03-31T07:55:16.374Z,49.10
2017-03-31T07:56:15.707Z,48.20
2017-03-31T07:57:15.029Z,47.60
2017-03-31T07:58:14.351Z,48.50
2017-03-31T07:59:13.647Z,47.70
2017-03-31T08:00:13.597Z,47.50
2017-03-31T08:01:13.050Z,47.80
2017-03-31T08:02:12.833Z,47.80
2017-03-31T08:03:12.184Z,47.60
2017-03-31T08:04:11.515Z,47.30
2017-03-31T08:05:10.862Z,46.90
2017-03-31T08:06:10.254Z,47.20
2017-03-31T08:07:09.553Z,49.30
2017-03-31T08:08:09.698Z,48.50
2017-03-31T08:09:09.153Z,48.70
2017-03-31T08:10:08.550Z,48.40
2017-03-31T08:11:07.853Z,49.00
2017-03-31T08:12:07.388Z,48.10
2017-03-31T08:13:06.747Z,46.80
2017-03-31T08:14:06.187Z,47.40
2017-03-31T08:15:06.259Z,46.40
2017-03-31T08:16:05.626Z,46.90
2017-03-31T08:17:04.944Z,46.50
2017-03-31T08:18:04.339Z,46.60
2017-03-31T08:19:03.668Z,46.60
2017-03-31T08:20:03.777Z,46.00
2017-03-31T08:21:03.141Z,46.50
2017-03-31T08:22:02.474Z,45.50
2017-03-31T08:23:01.849Z,45.90
2017-03-31T08:24:01.162Z,45.40
2017-03-31T08:25:00.489Z,45.10
2017-03-31T08:25:59.819Z,44.80
2017-03-31T08:26:59.277Z,45.00
2017-03-31T08:27:58.653Z,43.30
2017-03-31T08:28:58.269Z,43.60
2017-03-31T08:29:57.608Z,44.60
2017-03-31T08:30:56.906Z,44.40
2017-03-31T08:31:56.980Z,44.60
2017-03-31T08:32:57.114Z,43.90
2017-03-31T08:33:56.476Z,43.10
2017-03-31T08:34:55.800Z,43.50
2017-03-31T08:35:55.164Z,43.50
2017-03-31T08:36:54.515Z,44.30
2017-03-31T08:37:53.886Z,43.50
2017-03-31T08:38:53.270Z,43.30
2017-03-31T08:39:53.325Z,43.00
2017-03-31T08:40:52.656Z,42.40
2017-03-31T08:41:51.985Z,41.90
2017-03-31T08:42:51.326Z,42.10
2017-03-31T08:43:50.692Z,41.40
2017-03-31T08:44:50.034Z,41.30
2017-03-31T08:45:49.423Z,40.00
2017-03-31T08:46:48.738Z,40.50
2017-03-31T08:47:48.081Z,41.00
2017-03-31T08:48:47.485Z,40.30
2017-03-31T08:49:46.766Z,40.30
2017-03-31T08:50:46.819Z,41.50
2017-03-31T08:51:46.149Z,40.30
2017-03-31T08:52:45.533Z,39.20
2017-03-31T08:53:44.870Z,39.30
2017-03-31T08:54:44.177Z,39.30
2017-03-31T08:55:43.489Z,40.20
2017-03-31T08:56:42.782Z,39.30
2017-03-31T08:57:42.123Z,39.30
2017-03-31T08:58:41.969Z,39.70
2017-03-31T08:59:41.301Z,39.30
2017-03-31T09:00:40.622Z,39.60
2017-03-31T09:01:40.289Z,40.40
2017-03-31T09:02:39.618Z,40.00
2017-03-31T09:03:39.033Z,39.30
2017-03-31T09:04:38.422Z,39.70
2017-03-31T09:05:37.777Z,39.60
2017-03-31T09:06:37.134Z,40.70
2017-03-31T09:07:36.491Z,41.20
2017-03-31T09:08:35.849Z,41.10
2017-03-31T09:09:35.198Z,40.90
2017-03-31T09:10:34.589Z,42.30
2017-03-31T09:11:34.111Z,40.90
2017-03-31T09:12:33.438Z,40.30
2017-03-31T09:13:32.856Z,41.00
2017-03-31T09:14:32.206Z,40.10
2017-03-31T09:15:31.504Z,39.60
2017-03-31T09:16:30.831Z,39.30
2017-03-31T09:17:30.199Z,39.30
2017-03-31T09:18:29.629Z,39.90
2017-03-31T09:19:29.057Z,39.10
2017-03-31T09:20:28.397Z,38.70
2017-03-31T09:21:27.710Z,38.70
2017-03-31T09:22:27.028Z,38.90
2017-03-31T09:23:26.663Z,38.90
2017-03-31T09:24:26.051Z,38.70
2017-03-31T09:25:25.391Z,39.50
2017-03-31T09:26:24.688Z,39.00
2017-03-31T09:27:24.762Z,38.50
2017-03-31T09:28:24.087Z,38.20
2017-03-31T09:29:23.449Z,37.60
2017-03-31T09:30:22.837Z,37.20
2017-03-31T09:31:22.190Z,37.00
2017-03-31T09:32:21.512Z,36.90
2017-03-31T09:33:20.881Z,36.30
2017-03-31T09:34:20.974Z,36.60
2017-03-31T09:35:20.279Z,36.80
2017-03-31T09:36:19.654Z,36.90
2017-03-31T09:37:19.075Z,37.50
2017-03-31T09:38:18.390Z,37.30
2017-03-31T09:39:17.725Z,37.40
2017-03-31T09:40:17.084Z,36.90
2017-03-31T09:41:16.446Z,36.90
2017-03-31T09:42:15.757Z,37.20
2017-03-31T09:43:15.113Z,37.30
2017-03-31T09:44:14.454Z,37.80
2017-03-31T09:45:13.768Z,37.10
2017-03-31T09:46:13.083Z,37.80
2017-03-31T09:47:13.044Z,37.40
2017-03-31T09:48:12.342Z,37.00
2017-03-31T09:49:11.754Z,36.10
2017-03-31T09:50:11.153Z,36.20
2017-03-31T09:51:10.470Z,36.10
2017-03-31T09:52:10.584Z,36.60
2017-03-31T09:53:09.906Z,35.90
2017-03-31T09:54:09.358Z,35.80
2017-03-31T09:55:08.729Z,34.60
2017-03-31T09:56:08.075Z,36.10
2017-03-31T09:57:07.402Z,35.80
2017-03-31T09:58:06.774Z,36.10
2017-03-31T09:59:06.359Z,36.00
2017-03-31T10:00:05.678Z,36.60
2017-03-31T10:01:05.841Z,36.60
2017-03-31T10:02:05.133Z,36.60
2017-03-31T10:03:04.530Z,37.70
2017-03-31T10:04:04.201Z,37.10
2017-03-31T10:05:03.623Z,37.10
2017-03-31T10:06:03.038Z,37.40
2017-03-31T10:07:02.402Z,37.70
2017-03-31T10:08:01.742Z,38.40
2017-03-31T10:09:01.096Z,37.80
2017-03-31T10:10:00.525Z,37.00
2017-03-31T10:10:59.846Z,36.50
2017-03-31T10:11:59.270Z,36.20
2017-03-31T10:12:58.722Z,36.00
2017-03-31T10:13:58.067Z,35.40
2017-03-31T10:14:57.409Z,35.70
2017-03-31T10:15:56.757Z,35.70
2017-03-31T10:16:56.852Z,35.20
2017-03-31T10:17:56.185Z,34.50
2017-03-31T10:18:55.485Z,33.70
2017-03-31T10:19:55.554Z,34.20
2017-03-31T10:20:54.966Z,33.80
2017-03-31T10:21:54.346Z,33.90
2017-03-31T10:22:53.654Z,32.90
2017-03-31T10:23:52.931Z,33.00
2017-03-31T10:24:52.540Z,33.40
2017-03-31T10:25:51.862Z,33.00
2017-03-31T10:26:51.176Z,32.90
2017-03-31T10:27:50.511Z,32.70
2017-03-31T10:28:49.834Z,33.30
2017-03-31T10:29:49.147Z,33.70
2017-03-31T10:30:48.660Z,33.50
2017-03-31T10:31:48.025Z,32.90
2017-03-31T10:32:47.345Z,32.80
2017-03-31T10:33:46.730Z,32.90
2017-03-31T10:34:46.061Z,33.50
2017-03-31T10:35:45.451Z,32.90
2017-03-31T10:36:44.821Z,32.80
2017-03-31T10:37:44.866Z,32.80
2017-03-31T10:38:44.227Z,32.80
2017-03-31T10:39:43.619Z,32.80
2017-03-31T10:40:43.013Z,33.00
2017-03-31T10:41:42.386Z,33.00
2017-03-31T10:42:41.744Z,32.40
2017-03-31T10:43:41.934Z,31.40
2017-03-31T10:44:41.991Z,31.60
2017-03-31T10:45:41.488Z,31.10
2017-03-31T10:46:40.799Z,32.10
2017-03-31T10:47:40.188Z,31.30
2017-03-31T10:48:39.559Z,31.50
2017-03-31T10:49:38.893Z,31.50
2017-03-31T10:50:38.552Z,31.70
2017-03-31T10:51:37.854Z,31.90
2017-03-31T10:52:37.205Z,32.60
2017-03-31T10:53:36.549Z,33.00
2017-03-31T10:54:35.880Z,32.50
2017-03-31T10:55:35.192Z,32.60
2017-03-31T10:56:35.286Z,31.80
2017-03-31T10:57:34.668Z,31.80
2017-03-31T10:58:34.028Z,32.10
2017-03-31T10:59:33.329Z,31.80
2017-03-31T11:00:33.449Z,31.50
2017-03-31T11:01:34.012Z,30.80
2017-03-31T11:02:33.392Z,31.10
2017-03-31T11:03:32.704Z,30.80
2017-03-31T11:04:32.117Z,31.00
2017-03-31T11:05:31.594Z,30.90
2017-03-31T11:06:31.000Z,30.60
2017-03-31T11:07:30.319Z,30.40
2017-03-31T11:08:29.656Z,30.80
2017-03-31T11:09:29.075Z,30.90
2017-03-31T11:10:28.421Z,31.40
2017-03-31T11:11:27.816Z,33.40
2017-03-31T11:12:27.104Z,32.70
2017-03-31T11:13:26.922Z,33.20
2017-03-31T11:14:26.265Z,32.10
2017-03-31T11:15:25.743Z,32.40
2017-03-31T11:16:25.077Z,32.40
2017-03-31T11:17:25.097Z,32.70
2017-03-31T11:18:35.011Z,33.20
2017-03-31T11:19:34.525Z,32.90
2017-03-31T11:20:34.582Z,32.10
2017-03-31T11:21:33.947Z,33.00
2017-03-31T11:22:33.733Z,32.90
2017-03-31T11:23:33.093Z,32.90
2017-03-31T11:24:32.464Z,31.70
2017-03-31T11:25:31.814Z,30.50
2017-03-31T11:26:31.245Z,30.40
2017-03-31T11:27:30.694Z,30.70
2017-03-31T11:28:30.017Z,29.90
2017-03-31T11:29:29.345Z,30.60
2017-03-31T11:30:28.657Z,30.10
2017-03-31T11:31:28.042Z,31.10
2017-03-31T11:32:27.410Z,31.20
2017-03-31T11:33:26.812Z,31.50
2017-03-31T11:34:26.218Z,31.80
2017-03-31T11:35:25.554Z,32.50
2017-03-31T11:36:24.973Z,32.50
2017-03-31T11:37:25.895Z,31.80
2017-03-31T11:38:25.265Z,32.40
2017-03-31T11:39:24.673Z,32.10
2017-03-31T11:40:24.010Z,32.50
2017-03-31T11:41:24.166Z,32.80
2017-03-31T11:42:23.491Z,32.40
2017-03-31T11:43:22.870Z,32.40
2017-03-31T11:44:23.642Z,32.60
2017-03-31T11:45:23.076Z,31.70
2017-03-31T11:46:22.397Z,30.70
2017-03-31T11:47:21.766Z,30.00
2017-03-31T11:48:21.079Z,29.90
2017-03-31T11:49:20.695Z,29.60
2017-03-31T11:50:20.025Z,29.50
2017-03-31T11:51:19.394Z,29.60
2017-03-31T11:52:18.741Z,29.90
2017-03-31T11:53:18.062Z,30.50
2017-03-31T11:54:17.373Z,30.50
2017-03-31T11:55:16.809Z,29.60
2017-03-31T11:56:16.526Z,29.80
2017-03-31T11:57:15.900Z,30.40
2017-03-31T11:58:15.240Z,29.90
2017-03-31T11:59:15.393Z,30.90
2017-03-31T12:00:14.709Z,30.40
2017-03-31T12:01:14.098Z,29.70
2017-03-31T12:02:13.497Z,29.60
2017-03-31T12:03:12.857Z,29.90
2017-03-31T12:04:12.240Z,29.70
2017-03-31T12:05:11.837Z,29.10
2017-03-31T12:06:11.286Z,29.50
2017-03-31T12:07:11.445Z,29.10
2017-03-31T12:08:10.845Z,29.10
2017-03-31T12:09:10.152Z,29.10
2017-03-31T12:10:09.592Z,29.00
2017-03-31T12:11:08.968Z,28.80
2017-03-31T12:12:08.278Z,29.60
2017-03-31T12:13:07.620Z,30.30
2017-03-31T12:14:06.907Z,30.40
2017-03-31T12:15:06.427Z,31.50
2017-03-31T12:16:05.778Z,31.10
2017-03-31T12:17:05.088Z,31.50
2017-03-31T12:18:04.494Z,31.40
2017-03-31T12:19:04.626Z,31.20
2017-03-31T12:20:04.725Z,31.30
2017-03-31T12:21:04.031Z,30.50
2017-03-31T12:22:03.358Z,30.40
2017-03-31T12:23:02.692Z,31.40
2017-03-31T12:24:02.228Z,32.00
2017-03-31T12:25:01.582Z,32.10
2017-03-31T12:26:00.881Z,33.10
2017-03-31T12:27:00.266Z,31.50
2017-03-31T12:28:00.329Z,31.90
2017-03-31T12:28:59.739Z,31.50
2017-03-31T12:29:59.140Z,30.40
2017-03-31T12:30:58.521Z,30.30
2017-03-31T12:31:58.680Z,30.50
2017-03-31T12:32:58.863Z,30.00
2017-03-31T12:33:58.241Z,30.80
2017-03-31T12:34:57.580Z,30.20
2017-03-31T12:35:56.977Z,31.10
2017-03-31T12:36:56.282Z,30.80
2017-03-31T12:37:55.604Z,30.70
2017-03-31T12:38:54.978Z,31.30
2017-03-31T12:39:54.340Z,30.70
2017-03-31T12:40:53.714Z,30.60
2017-03-31T12:41:53.030Z,30.10
2017-03-31T12:42:53.108Z,30.00
2017-03-31T12:43:53.186Z,30.30
2017-03-31T12:44:52.575Z,30.70
2017-03-31T12:45:51.904Z,30.60